Time;durP1;ratioP1;P1;durP2;ratioP2;P2;SDS_P1;SDS_P2;PMS_P1;PMS_P2;Temp;Humidity;BMP_temperature;BMP_pressure;BME280_temperature;BME280_humidity;BME280_pressure;Samples;Min_cycle;Max_cycle;Signal;HPM_P1;HPM_P2
2022/04/23 00:00:39;;;;;;;35.30;24.70;;;16.30;67.20;;;;;;5076009;28;20125;-79
2022/04/23 00:03:05;;;;;;;27.05;21.45;;;16.40;67.30;;;;;;5093743;28;20039;-80
2022/04/23 00:05:31;;;;;;;26.85;21.30;;;16.40;66.50;;;;;;5075383;28;20032;-80
2022/04/23 00:07:57;;;;;;;26.95;21.50;;;16.20;67.00;;;;;;5075156;28;20027;-79
2022/04/23 00:10:23;;;;;;;40.30;25.80;;;16.00;67.60;;;;;;5075312;28;20489;-78
2022/04/23 00:12:50;;;;;;;41.00;27.40;;;16.00;68.70;;;;;;5075170;28;20032;-79
2022/04/23 00:15:15;;;;;;;34.65;25.77;;;16.50;67.40;;;;;;5075421;28;20073;-80
2022/04/23 00:17:43;;;;;;;33.72;24.17;;;16.90;66.50;;;;;;5093523;28;20099;-80
2022/04/23 00:20:11;;;;;;;35.78;25.55;;;17.10;65.60;;;;;;5075330;28;20129;-80
2022/04/23 00:22:37;;;;;;;27.58;21.88;;;17.30;64.70;;;;;;5075535;28;20114;-80
2022/04/23 00:25:03;;;;;;;37.17;25.15;;;17.20;64.00;;;;;;5075254;28;20070;-80
2022/04/23 00:27:29;;;;;;;29.77;22.73;;;17.30;64.60;;;;;;5074979;28;20039;-79
2022/04/23 00:29:55;;;;;;;35.80;24.88;;;17.40;64.10;;;;;;5094054;28;20028;-80
2022/04/23 00:32:20;;;;;;;36.25;24.98;;;17.60;63.80;;;;;;5093073;28;20475;-80
2022/04/23 00:34:46;;;;;;;38.88;26.73;;;17.50;63.80;;;;;;5092332;28;20495;-79
2022/04/23 00:37:12;;;;;;;26.80;21.15;;;17.60;63.50;;;;;;5075102;28;20031;-81
2022/04/23 00:39:37;;;;;;;25.85;20.92;;;17.60;63.10;;;;;;5075123;28;20116;-80
2022/04/23 00:42:08;;;;;;;25.83;20.38;;;17.50;63.00;;;;;;5075257;28;20508;-81
2022/04/23 00:44:34;;;;;;;39.70;26.15;;;17.60;62.40;;;;;;5075514;28;20544;-81
2022/04/23 00:47:00;;;;;;;36.72;26.27;;;17.30;64.10;;;;;;5075505;28;20067;-84
2022/04/23 00:49:26;;;;;;;30.25;23.15;;;17.30;64.50;;;;;;5074967;28;20127;-85
2022/04/23 00:51:52;;;;;;;27.73;20.48;;;17.20;64.60;;;;;;5093616;28;20410;-85
2022/04/23 00:54:19;;;;;;;23.17;18.08;;;17.30;63.70;;;;;;5075787;28;20035;-88
2022/04/23 00:56:46;;;;;;;24.60;19.60;;;17.40;62.70;;;;;;5074949;28;20024;-80
2022/04/23 00:59:12;;;;;;;22.70;18.30;;;17.50;62.60;;;;;;5074971;28;20020;-80
2022/04/23 01:01:43;;;;;;;29.98;20.48;;;17.30;63.20;;;;;;5074679;28;20020;-79
2022/04/23 01:04:09;;;;;;;;;;;17.00;64.40;;;;;;5075654;28;20067;-80
2022/04/23 01:06:35;;;;;;;26.90;20.42;;;16.50;65.70;;;;;;5074919;28;19904;-79
2022/04/23 01:09:03;;;;;;;34.60;23.50;;;16.40;66.50;;;;;;5074991;28;20020;-85
2022/04/23 01:11:29;;;;;;;29.52;21.65;;;16.70;66.00;;;;;;5074566;28;20032;-79
2022/04/23 01:13:55;;;;;;;29.50;21.92;;;17.10;65.30;;;;;;5074447;28;20035;-78
2022/04/23 01:16:21;;;;;;;35.70;24.70;;;17.40;64.20;;;;;;5074765;28;20038;-79
2022/04/23 01:18:46;;;;;;;28.30;21.73;;;17.70;63.40;;;;;;5075117;28;20025;-80
2022/04/23 01:21:13;;;;;;;29.85;22.63;;;17.40;63.40;;;;;;5075134;28;20021;-79
2022/04/23 01:23:44;;;;;;;27.85;20.77;;;17.10;64.60;;;;;;5075409;28;20032;-85
2022/04/23 01:26:10;;;;;;;26.42;20.83;;;17.30;64.00;;;;;;5074610;28;20024;-80
2022/04/23 01:28:37;;;;;;;24.05;18.88;;;17.20;63.80;;;;;;5074828;28;20034;-80
2022/04/23 01:31:04;;;;;;;21.10;17.17;;;16.90;64.80;;;;;;5074316;28;20031;-80
2022/04/23 01:33:32;;;;;;;24.38;18.95;;;16.90;64.70;;;;;;5074631;28;20038;-80
2022/04/23 01:35:58;;;;;;;24.15;19.40;;;16.80;65.50;;;;;;5075121;28;20043;-81
2022/04/23 01:38:23;;;;;;;20.23;17.25;;;16.90;64.90;;;;;;5074617;28;20102;-81
2022/04/23 01:40:49;;;;;;;23.50;18.42;;;16.80;65.70;;;;;;5074010;28;20171;-80
2022/04/23 01:43:15;;;;;;;20.27;16.92;;;16.80;65.30;;;;;;5092677;28;20044;-81
2022/04/23 01:45:41;;;;;;;25.05;20.45;;;16.80;65.20;;;;;;5074477;28;20024;-80
2022/04/23 01:48:06;;;;;;;27.88;20.88;;;16.60;66.50;;;;;;5077527;28;20032;-79
2022/04/23 01:50:34;;;;;;;26.10;20.02;;;16.90;65.60;;;;;;5077951;28;20505;-80
2022/04/23 01:52:59;;;;;;;23.35;18.55;;;17.20;64.50;;;;;;5078231;28;20040;-79
2022/04/23 01:55:25;;;;;;;21.63;15.75;;;17.30;63.90;;;;;;5078469;28;20028;-80
2022/04/23 01:57:51;;;;;;;25.20;19.13;;;17.00;63.60;;;;;;5095682;28;20035;-80
2022/04/23 02:00:17;;;;;;;26.65;20.48;;;17.20;64.20;;;;;;5078692;28;20451;-80
2022/04/23 02:02:43;;;;;;;26.15;19.90;;;17.50;63.20;;;;;;5095474;28;20035;-81
2022/04/23 02:05:10;;;;;;;24.83;19.88;;;17.60;63.00;;;;;;5078113;28;20032;-80
2022/04/23 02:07:45;;;;;;;28.23;20.98;;;17.70;62.80;;;;;;5096147;28;20024;-80
2022/04/23 02:10:13;;;;;;;23.63;18.67;;;17.80;62.80;;;;;;5078668;28;20394;-81
2022/04/23 02:12:40;;;;;;;27.05;20.42;;;17.60;63.00;;;;;;5078923;28;20032;-80
2022/04/23 02:15:08;;;;;;;24.25;19.55;;;17.50;63.70;;;;;;5077502;28;20020;-80
2022/04/23 02:17:37;;;;;;;24.20;18.63;;;17.40;64.30;;;;;;5096244;28;20390;-84
2022/04/23 02:20:05;;;;;;;20.30;17.52;;;17.40;63.40;;;;;;5077514;28;20394;-84
2022/04/23 02:22:30;;;;;;;20.95;17.30;;;17.40;63.40;;;;;;5078493;28;20034;-80
2022/04/23 02:24:56;;;;;;;23.85;18.88;;;17.20;64.10;;;;;;5095695;28;20031;-81
2022/04/23 02:27:23;;;;;;;22.35;17.67;;;17.30;63.60;;;;;;5077279;28;20024;-79
2022/04/23 02:29:52;;;;;;;22.30;17.02;;;17.10;64.20;;;;;;5076906;28;20387;-79
2022/04/23 02:32:18;;;;;;;21.30;16.73;;;17.30;63.90;;;;;;5095160;28;20028;-81
2022/04/23 02:34:44;;;;;;;23.27;18.42;;;17.40;63.50;;;;;;5077435;28;20020;-79
2022/04/23 02:37:11;;;;;;;24.38;18.90;;;17.30;63.10;;;;;;5076961;28;20028;-80
2022/04/23 02:39:36;;;;;;;24.05;18.20;;;16.70;66.00;;;;;;5077704;28;20024;-81
2022/04/23 02:42:03;;;;;;;23.40;18.25;;;16.90;65.50;;;;;;5077007;28;20033;-80
2022/04/23 02:44:28;;;;;;;22.63;16.90;;;17.10;64.30;;;;;;5077365;28;20031;-84
2022/04/23 02:46:54;;;;;;;18.95;16.17;;;17.30;63.90;;;;;;5076778;28;20028;-81
2022/04/23 02:49:21;;;;;;;24.02;18.70;;;17.50;63.10;;;;;;5076592;28;20105;-79
2022/04/23 02:51:48;;;;;;;19.75;16.52;;;17.50;63.50;;;;;;5076061;28;20028;-78
2022/04/23 02:54:13;;;;;;;20.48;16.13;;;17.20;63.40;;;;;;5095094;28;20086;-79
2022/04/23 02:56:39;;;;;;;21.52;16.50;;;16.50;65.70;;;;;;5076773;28;20020;-82
2022/04/23 02:59:06;;;;;;;18.80;15.18;;;16.60;65.80;;;;;;5076492;28;20032;-80
2022/04/23 03:01:34;;;;;;;18.80;14.40;;;16.60;65.50;;;;;;5076674;28;20016;-80
2022/04/23 03:04:00;;;;;;;20.08;15.60;;;16.60;65.20;;;;;;5095070;28;20467;-79
2022/04/23 03:06:30;;;;;;;22.85;15.30;;;16.60;65.60;;;;;;5076445;28;20030;-80
2022/04/23 03:09:03;;;;;;;19.27;16.25;;;16.30;67.50;;;;;;5076931;28;20123;-81
2022/04/23 03:11:32;;;;;;;24.45;18.33;;;16.50;66.80;;;;;;5076604;28;20020;-80
2022/04/23 03:13:58;;;;;;;23.60;17.60;;;16.80;65.90;;;;;;5076650;28;20066;-80
2022/04/23 03:16:27;;;;;;;22.08;17.88;;;17.20;64.70;;;;;;5076417;28;20036;-81
2022/04/23 03:18:53;;;;;;;24.05;18.98;;;17.40;64.20;;;;;;5076475;28;20020;-82
2022/04/23 03:21:19;;;;;;;23.30;17.48;;;17.30;64.50;;;;;;5076337;28;20031;-81
2022/04/23 03:23:45;;;;;;;26.67;20.52;;;17.50;63.50;;;;;;5094414;28;20023;-83
2022/04/23 03:26:11;;;;;;;23.13;17.98;;;17.70;63.30;;;;;;5076522;28;20078;-80
2022/04/23 03:28:36;;;;;;;28.48;19.65;;;17.80;63.10;;;;;;5076228;28;20024;-81
2022/04/23 03:31:02;;;;;;;24.35;18.83;;;17.70;63.00;;;;;;5095999;28;20056;-83
2022/04/23 03:33:28;;;;;;;29.73;20.48;;;17.80;63.00;;;;;;5076059;28;20089;-82
2022/04/23 03:35:54;;;;;;;24.33;18.38;;;17.80;62.70;;;;;;5093895;28;20099;-84
2022/04/23 03:38:20;;;;;;;25.67;19.70;;;17.50;63.50;;;;;;5094198;28;20059;-80
2022/04/23 03:40:48;;;;;;;23.70;17.58;;;17.40;63.80;;;;;;5076568;28;20440;-82
2022/04/23 03:43:14;;;;;;;25.52;19.95;;;17.50;63.10;;;;;;5076334;28;20027;-83
2022/04/23 03:45:40;;;;;;;29.70;20.88;;;17.50;64.10;;;;;;5075889;28;20115;-81
2022/04/23 03:48:06;;;;;;;24.80;19.60;;;17.60;63.90;;;;;;5075987;28;20115;-80
2022/04/23 03:50:33;;;;;;;27.27;19.40;;;17.70;63.10;;;;;;5093668;28;20044;-79
2022/04/23 03:52:58;;;;;;;24.42;19.85;;;17.80;63.10;;;;;;5076019;28;20036;-85
2022/04/23 03:55:25;;;;;;;23.60;19.05;;;18.00;62.70;;;;;;5076238;28;20028;-81
2022/04/23 03:57:53;;;;;;;24.50;18.58;;;18.10;62.20;;;;;;5075671;28;20126;-81
2022/04/23 04:00:20;;;;;;;22.00;17.77;;;18.00;62.50;;;;;;5076672;28;20052;-81
2022/04/23 04:02:46;;;;;;;30.75;21.48;;;18.00;62.30;;;;;;5075925;28;20020;-81
2022/04/23 04:05:12;;;;;;;23.30;17.77;;;18.00;62.60;;;;;;5075433;28;20103;-80
2022/04/23 04:07:46;;;;;;;23.08;18.38;;;18.10;62.30;;;;;;5075964;28;20028;-83
2022/04/23 04:10:14;;;;;;;26.50;19.10;;;17.70;62.40;;;;;;5074916;28;20073;-81
2022/04/23 04:12:39;;;;;;;21.60;17.25;;;17.30;63.60;;;;;;5075508;28;20039;-82
2022/04/23 04:15:07;;;;;;;22.27;16.95;;;17.40;63.30;;;;;;5075772;28;20028;-82
2022/04/23 04:17:34;;;;;;;23.55;18.33;;;17.20;63.50;;;;;;5075695;28;20032;-82
2022/04/23 04:19:59;;;;;;;26.25;19.23;;;17.20;63.60;;;;;;5075475;28;20046;-81
2022/04/23 04:22:25;;;;;;;26.25;20.33;;;17.40;62.90;;;;;;5075753;28;20471;-81
2022/04/23 04:24:51;;;;;;;26.17;19.42;;;17.50;63.10;;;;;;5093303;28;20100;-81
2022/04/23 04:27:17;;;;;;;23.23;18.27;;;17.60;63.20;;;;;;5094346;28;20051;-81
2022/04/23 04:29:45;;;;;;;23.52;18.02;;;17.70;62.90;;;;;;5075468;28;20031;-82
2022/04/23 04:32:12;;;;;;;24.88;18.92;;;17.50;62.70;;;;;;5075250;28;20032;-80
2022/04/23 04:34:38;;;;;;;30.83;21.45;;;17.50;63.40;;;;;;5075296;28;20024;-80
2022/04/23 04:37:07;;;;;;;24.85;20.02;;;17.60;63.20;;;;;;5074664;28;20032;-81
2022/04/23 04:39:37;;;;;;;27.60;20.52;;;17.80;62.70;;;;;;5075275;28;20043;-81
2022/04/23 04:42:04;;;;;;;25.92;19.65;;;17.90;62.50;;;;;;5093106;28;20016;-82
2022/04/23 04:44:29;;;;;;;22.65;17.83;;;17.90;62.00;;;;;;5093081;28;20050;-82
2022/04/23 04:46:55;;;;;;;23.70;18.58;;;17.90;62.30;;;;;;5074851;28;20028;-80
2022/04/23 04:49:22;;;;;;;26.30;19.98;;;18.00;62.00;;;;;;5075743;28;20047;-80
2022/04/23 04:51:49;;;;;;;25.98;20.70;;;18.00;62.00;;;;;;5075443;28;20128;-84
2022/04/23 04:54:17;;;;;;;24.92;19.92;;;18.00;61.80;;;;;;5075297;28;20031;-81
2022/04/23 04:56:44;;;;;;;23.58;19.58;;;17.90;62.40;;;;;;5075175;28;20024;-81
2022/04/23 04:59:10;;;;;;;27.58;21.63;;;18.00;62.00;;;;;;5075736;28;20045;-80
2022/04/23 05:01:36;;;;;;;24.08;19.05;;;17.90;62.90;;;;;;5075201;28;20020;-82
2022/04/23 05:04:02;;;;;;;31.70;22.27;;;17.80;62.80;;;;;;5093010;28;20419;-80
2022/04/23 05:06:28;;;;;;;27.98;21.83;;;17.70;64.40;;;;;;5093384;28;20016;-82
2022/04/23 05:08:54;;;;;;;32.03;23.98;;;17.90;63.90;;;;;;5092942;28;20098;-82
2022/04/23 05:11:20;;;;;;;25.08;20.25;;;18.00;63.50;;;;;;5075150;28;20025;-80
2022/04/23 05:13:45;;;;;;;28.60;22.80;;;18.00;63.40;;;;;;5093222;28;20021;-81
2022/04/23 05:16:11;;;;;;;22.85;18.42;;;18.10;63.70;;;;;;5092870;28;20028;-83
2022/04/23 05:18:37;;;;;;;22.42;18.15;;;18.20;63.20;;;;;;5093076;28;20059;-80
2022/04/23 05:21:03;;;;;;;21.77;17.52;;;18.20;63.00;;;;;;5076250;28;20023;-85
2022/04/23 05:23:29;;;;;;;20.83;17.58;;;18.40;62.90;;;;;;5079169;28;20028;-81
2022/04/23 05:25:55;;;;;;;24.77;18.60;;;18.50;62.70;;;;;;5080112;28;20028;-84
2022/04/23 05:28:21;;;;;;;19.88;16.17;;;18.60;62.60;;;;;;5096841;28;20424;-83
2022/04/23 05:30:47;;;;;;;19.45;16.25;;;18.40;62.20;;;;;;5078817;28;20026;-81
2022/04/23 05:33:13;;;;;;;17.77;15.07;;;18.50;62.90;;;;;;5096919;28;20036;-81
2022/04/23 05:35:39;;;;;;;27.92;19.52;;;18.50;62.90;;;;;;5095880;28;20024;-80
2022/04/23 05:38:05;;;;;;;19.60;14.85;;;18.60;63.00;;;;;;5096081;28;20032;-79
2022/04/23 05:40:32;;;;;;;16.45;14.02;;;18.50;63.00;;;;;;5078572;28;20028;-80
2022/04/23 05:42:58;;;;;;;17.67;14.05;;;17.30;64.90;;;;;;5079389;28;20544;-85
2022/04/23 05:45:29;;;;;;;18.30;14.38;;;16.80;66.70;;;;;;5078552;28;20827;-80
2022/04/23 05:47:56;;;;;;;25.50;18.00;;;16.00;69.00;;;;;;5078435;28;20503;-82
2022/04/23 05:50:23;;;;;;;16.75;13.60;;;16.50;69.20;;;;;;5075348;28;20049;-80
2022/04/23 05:52:49;;;;;;;18.67;15.23;;;17.10;66.60;;;;;;5075851;28;20028;-83
2022/04/23 05:55:15;;;;;;;21.27;14.43;;;17.20;66.30;;;;;;5076658;28;20557;-84
2022/04/23 05:57:41;;;;;;;16.90;13.48;;;17.50;65.50;;;;;;5075587;28;20528;-79
2022/04/23 06:00:09;;;;;;;16.73;13.23;;;17.70;63.40;;;;;;5074486;28;20025;-83
2022/04/23 06:02:35;;;;;;;22.13;16.45;;;17.40;64.40;;;;;;5076173;28;20033;-80
2022/04/23 06:05:01;;;;;;;19.65;14.77;;;17.70;65.80;;;;;;5074952;28;20028;-80
2022/04/23 06:07:27;;;;;;;18.67;14.93;;;17.70;63.90;;;;;;5074541;28;20031;-82
2022/04/23 06:09:53;;;;;;;21.75;15.40;;;18.30;62.20;;;;;;5074452;28;20024;-86
2022/04/23 06:12:19;;;;;;;19.48;16.55;;;18.70;61.70;;;;;;5075787;28;20106;-82
2022/04/23 06:14:45;;;;;;;18.65;15.95;;;19.20;61.10;;;;;;5074526;28;20024;-81
2022/04/23 06:17:12;;;;;;;20.02;16.42;;;19.50;61.10;;;;;;5075943;28;20395;-83
2022/04/23 06:19:39;;;;;;;23.17;17.58;;;19.60;60.80;;;;;;5074443;28;20383;-80
2022/04/23 06:22:05;;;;;;;20.55;17.13;;;19.60;61.60;;;;;;5075597;28;20017;-84
2022/04/23 06:24:32;;;;;;;23.52;18.70;;;19.70;61.10;;;;;;5075541;28;20075;-89
2022/04/23 06:26:58;;;;;;;25.90;17.65;;;19.80;60.70;;;;;;5073930;28;20451;-81
2022/04/23 06:29:23;;;;;;;20.65;17.00;;;19.90;60.40;;;;;;5074445;28;20547;-81
2022/04/23 06:31:49;;;;;;;23.25;17.10;;;19.80;60.80;;;;;;5074473;28;20090;-85
2022/04/23 06:34:15;;;;;;;21.67;17.95;;;19.90;60.10;;;;;;5073538;28;20031;-81
2022/04/23 06:36:42;;;;;;;20.00;16.65;;;19.90;60.10;;;;;;5075210;28;20036;-82
2022/04/23 06:39:08;;;;;;;21.35;18.00;;;19.20;61.60;;;;;;5075468;28;20484;-86
2022/04/23 06:41:34;;;;;;;22.88;18.48;;;19.00;62.70;;;;;;5074157;28;20059;-82
2022/04/23 06:44:00;;;;;;;19.87;17.14;;;19.30;62.10;;;;;;4722620;28;10000429;-84
2022/04/23 06:46:26;;;;;;;21.38;16.92;;;19.60;61.70;;;;;;5072099;28;20032;-81
2022/04/23 06:48:51;;;;;;;23.05;17.25;;;19.80;61.00;;;;;;5072432;28;20771;-80
2022/04/23 06:51:17;;;;;;;22.33;17.42;;;19.90;60.30;;;;;;5073719;28;20035;-83
2022/04/23 06:53:43;;;;;;;20.65;17.95;;;20.00;60.10;;;;;;5071466;28;20037;-80
2022/04/23 06:56:09;;;;;;;18.50;15.98;;;19.90;60.10;;;;;;5071479;28;20103;-83
2022/04/23 06:58:35;;;;;;;21.52;18.00;;;19.90;60.50;;;;;;5072624;28;20528;-80
2022/04/23 07:01:06;;;;;;;24.65;18.92;;;19.90;60.80;;;;;;5073602;28;20032;-79
2022/04/23 07:03:32;;;;;;;20.95;17.17;;;20.00;60.40;;;;;;5072079;28;20021;-79
2022/04/23 07:05:57;;;;;;;23.10;17.45;;;20.00;60.00;;;;;;5071333;28;20020;-79
2022/04/23 07:08:23;;;;;;;22.77;17.13;;;20.00;59.90;;;;;;5072103;28;20028;-82
2022/04/23 07:10:49;;;;;;;22.73;17.85;;;20.00;59.40;;;;;;5071823;28;20037;-83
2022/04/23 07:13:15;;;;;;;23.55;17.60;;;20.00;60.00;;;;;;5071044;28;20578;-80
2022/04/23 07:15:41;;;;;;;22.05;17.48;;;20.00;59.40;;;;;;5072684;28;20017;-80
2022/04/23 07:18:07;;;;;;;21.05;16.75;;;20.20;59.60;;;;;;5071620;28;20086;-79
2022/04/23 07:20:34;;;;;;;17.58;14.98;;;20.30;59.20;;;;;;5070788;28;20024;-80
2022/04/23 07:25:44;;;;;;;18.52;15.73;;;20.40;59.20;;;;;;5072952;28;20035;-79
2022/04/23 07:28:11;;;;;;;21.08;16.83;;;20.40;59.20;;;;;;5072975;28;20032;-82
2022/04/23 07:30:37;;;;;;;19.20;15.07;;;20.20;60.40;;;;;;5072116;28;20032;-80
2022/04/23 07:33:04;;;;;;;15.18;12.75;;;20.20;60.10;;;;;;5071461;28;20048;-80
2022/04/23 07:38:19;;;;;;;18.15;14.23;;;20.40;59.50;;;;;;5072959;28;20035;-81
2022/04/23 07:40:46;;;;;;;17.77;14.38;;;20.30;58.60;;;;;;5072771;28;20052;-82
2022/04/23 07:43:14;;;;;;;18.13;15.23;;;20.10;58.80;;;;;;5070916;28;20048;-81
2022/04/23 07:45:44;;;;;;;20.15;16.13;;;20.10;59.50;;;;;;5071235;28;20063;-82
2022/04/23 07:48:11;;;;;;;;;;;20.40;59.50;;;;;;5071887;28;20028;-79
2022/04/23 07:50:38;;;;;;;20.52;15.90;;;20.50;58.90;;;;;;5092628;28;19920;-82
2022/04/23 07:53:04;;;;;;;19.42;15.85;;;20.50;59.40;;;;;;5092086;28;20409;-81
2022/04/23 07:55:36;;;;;;;16.45;14.52;;;20.80;58.80;;;;;;5074255;28;20030;-81
2022/04/23 07:58:05;;;;;;;18.67;14.93;;;21.10;58.50;;;;;;5073935;28;20032;-80
2022/04/23 08:00:34;;;;;;;18.17;14.90;;;21.10;58.30;;;;;;5074646;28;20028;-82
2022/04/23 08:03:03;;;;;;;16.65;13.85;;;21.20;58.20;;;;;;4794696;28;10000406;-81
2022/04/23 08:05:33;;;;;;;23.85;15.15;;;21.40;57.40;;;;;;5074503;28;20263;-81
2022/04/23 08:07:59;;;;;;;15.48;12.45;;;21.50;57.50;;;;;;5075105;28;20028;-81
2022/04/23 08:10:25;;;;;;;21.30;14.00;;;21.40;56.80;;;;;;5074520;28;20394;-82
2022/04/23 08:12:51;;;;;;;25.15;13.38;;;21.20;57.30;;;;;;5093969;28;20154;-81
2022/04/23 08:15:18;;;;;;;20.02;15.45;;;21.30;57.10;;;;;;5059167;28;20044;-81
2022/04/23 08:17:43;;;;;;;18.20;13.18;;;21.70;58.00;;;;;;5075529;28;20050;-82
2022/04/23 08:20:10;;;;;;;17.30;13.57;;;21.60;56.90;;;;;;5075690;28;20035;-84
2022/04/23 08:22:36;;;;;;;17.02;12.57;;;22.00;56.70;;;;;;5075234;28;20600;-81
2022/04/23 08:25:02;;;;;;;18.98;13.57;;;22.40;56.30;;;;;;5093586;28;20021;-80
2022/04/23 08:27:28;;;;;;;16.40;13.45;;;22.70;55.30;;;;;;5093691;28;20209;-81
2022/04/23 08:32:38;;;;;;;13.18;10.82;;;23.10;54.30;;;;;;5093932;28;20082;-86
2022/04/23 08:35:05;;;;;;;15.00;12.90;;;23.00;54.60;;;;;;5075710;28;20024;-83
2022/04/23 08:37:33;;;;;;;14.50;13.00;;;23.00;55.30;;;;;;5075828;28;20471;-82
2022/04/23 08:39:59;;;;;;;14.15;12.05;;;23.10;54.10;;;;;;5075622;28;20032;-85
2022/04/23 08:42:25;;;;;;;13.10;11.05;;;23.20;53.30;;;;;;5075642;28;20429;-82
2022/04/23 08:44:53;;;;;;;15.23;12.10;;;23.10;53.40;;;;;;5074814;28;20054;-80
2022/04/23 08:47:23;;;;;;;14.25;11.48;;;23.00;54.60;;;;;;5075028;28;20075;-80
2022/04/23 08:49:56;;;;;;;13.02;11.05;;;23.10;54.20;;;;;;5075111;28;20036;-82
2022/04/23 08:52:33;;;;;;;14.68;11.65;;;23.20;53.30;;;;;;5075317;28;20032;-81
2022/04/23 08:55:00;;;;;;;11.85;9.70;;;23.10;52.80;;;;;;5093535;28;20024;-84
2022/04/23 08:57:26;;;;;;;13.27;10.20;;;23.10;53.10;;;;;;5078678;28;20024;-82
2022/04/23 08:59:56;;;;;;;10.77;9.02;;;23.10;51.70;;;;;;5079040;28;20029;-81
2022/04/23 09:02:23;;;;;;;10.95;9.05;;;22.70;52.80;;;;;;5097456;28;20085;-83
2022/04/23 09:04:49;;;;;;;10.95;9.45;;;21.60;52.50;;;;;;5079492;28;20032;-85
2022/04/23 09:07:23;;;;;;;12.32;9.68;;;21.60;53.90;;;;;;5079154;28;20493;-83
2022/04/23 09:09:50;;;;;;;10.27;8.65;;;21.90;52.10;;;;;;5079227;28;20024;-81
2022/04/23 09:12:19;;;;;;;11.10;9.35;;;20.60;54.30;;;;;;5079163;28;20051;-82
2022/04/23 09:14:45;;;;;;;13.05;10.52;;;20.40;55.80;;;;;;5097322;28;20027;-82
2022/04/23 09:25:39;;;;;;;11.07;9.50;;;22.20;53.70;;;;;;5097323;28;20039;-86
2022/04/23 09:28:28;;;;;;;11.48;9.38;;;22.90;52.40;;;;;;5096980;28;20070;-83
2022/04/23 09:30:55;;;;;;;11.20;9.32;;;23.40;51.60;;;;;;5078674;28;20504;-82
2022/04/23 09:33:28;;;;;;;11.80;9.68;;;23.20;51.10;;;;;;5079156;28;20478;-82
2022/04/23 09:36:03;;;;;;;18.38;13.90;;;23.30;52.00;;;;;;5078670;28;20054;-82
2022/04/23 09:38:30;;;;;;;15.13;13.45;;;23.50;51.30;;;;;;5078672;28;20020;-87
2022/04/23 09:41:19;;;;;;;12.65;10.77;;;23.50;52.00;;;;;;5078642;28;20448;-85
2022/04/23 09:43:46;;;;;;;11.73;10.10;;;23.50;51.90;;;;;;5078513;28;20028;-83
2022/04/23 09:46:12;;;;;;;11.85;10.18;;;23.40;51.30;;;;;;5096215;28;20062;-86
2022/04/23 09:48:39;;;;;;;12.20;9.40;;;23.50;51.20;;;;;;5078424;28;20082;-81
2022/04/23 09:51:19;;;;;;;17.08;12.57;;;23.30;52.10;;;;;;5076907;28;20025;-85
2022/04/23 09:53:46;;;;;;;14.57;11.87;;;23.50;51.80;;;;;;5058433;28;20064;-83
2022/04/23 09:56:13;;;;;;;13.32;11.90;;;23.40;52.40;;;;;;5058529;28;20047;-83
2022/04/23 09:58:39;;;;;;;13.32;11.73;;;23.60;52.70;;;;;;5058663;28;20029;-83
2022/04/23 10:01:08;;;;;;;13.13;10.80;;;23.80;52.10;;;;;;5058382;28;20039;-88
2022/04/23 10:03:34;;;;;;;11.27;9.03;;;24.00;51.30;;;;;;4023400;28;10000684;-83
2022/04/23 10:06:04;;;;;;;14.18;10.50;;;23.90;50.20;;;;;;5077798;28;20028;-85
2022/04/23 10:08:33;;;;;;;10.85;9.40;;;23.40;50.70;;;;;;5094432;28;20020;-83
2022/04/23 10:11:26;;;;;;;13.98;10.02;;;23.40;50.80;;;;;;5078030;28;20024;-83
2022/04/23 10:14:03;;;;;;;10.48;8.77;;;23.20;51.30;;;;;;5077712;28;20081;-87
2022/04/23 10:16:30;;;;;;;11.25;9.25;;;22.80;50.50;;;;;;5077858;28;20016;-81
2022/04/23 10:18:57;;;;;;;11.05;9.50;;;22.90;51.10;;;;;;5096086;28;20035;-82
2022/04/23 10:21:48;;;;;;;12.00;10.00;;;22.60;52.50;;;;;;5077910;28;20474;-88
2022/04/23 10:24:25;;;;;;;11.75;10.00;;;22.00;53.30;;;;;;5078175;28;20131;-82
2022/04/23 10:26:55;;;;;;;12.23;9.90;;;21.70;54.20;;;;;;5078372;28;20464;-83
2022/04/23 10:29:27;;;;;;;13.00;9.88;;;21.60;53.90;;;;;;5078112;28;20024;-82
2022/04/23 10:32:11;;;;;;;12.15;10.30;;;21.90;53.80;;;;;;5078047;28;20124;-88
2022/04/23 10:34:38;;;;;;;13.73;11.13;;;21.70;53.90;;;;;;5078139;28;20036;-82
2022/04/23 10:37:14;;;;;;;13.10;10.80;;;21.90;54.40;;;;;;5077853;28;20082;-83
2022/04/23 10:39:42;;;;;;;12.75;10.82;;;21.90;53.70;;;;;;5077819;28;20052;-84
2022/04/23 10:42:11;;;;;;;13.35;11.02;;;22.10;53.70;;;;;;5077703;28;20020;-83
2022/04/23 10:44:36;;;;;;;12.38;10.20;;;21.90;54.20;;;;;;5077896;28;20381;-90
2022/04/23 10:47:16;;;;;;;11.80;10.27;;;21.90;53.90;;;;;;5077634;28;20020;-90
2022/04/23 10:49:43;;;;;;;12.98;10.75;;;21.70;53.90;;;;;;5077725;28;20130;-89
2022/04/23 10:52:09;;;;;;;12.80;10.40;;;21.90;54.30;;;;;;5077574;28;20398;-82
2022/04/23 10:54:42;;;;;;;13.68;10.18;;;22.30;53.50;;;;;;5095528;28;20087;-89
2022/04/23 10:57:13;;;;;;;13.27;10.52;;;22.30;53.80;;;;;;5095691;28;20024;-83
2022/04/23 10:59:48;;;;;;;;;;;22.40;53.00;;;;;;5077652;28;20020;-83
2022/04/23 11:02:20;;;;;;;11.48;9.82;;;22.70;52.50;;;;;;5095406;28;20423;-83
2022/04/23 11:13:30;;;;;;;11.15;8.80;;;23.60;51.50;;;;;;5095371;28;20444;-87
2022/04/23 11:16:11;;;;;;;11.32;10.05;;;24.00;51.30;;;;;;5077182;28;20098;-87
2022/04/23 11:18:37;;;;;;;;;;;24.10;51.00;;;;;;5078556;28;20100;-87
2022/04/23 11:21:23;;;;;;;11.07;8.73;;;24.50;48.80;;;;;;5077534;28;19904;-85
2022/04/23 11:23:49;;;;;;;11.63;8.95;;;24.40;49.30;;;;;;5077286;28;20032;-84
2022/04/23 11:26:18;;;;;;;13.82;9.60;;;24.60;49.80;;;;;;5077297;28;20048;-84
2022/04/23 11:28:44;;;;;;;10.70;9.02;;;24.50;50.50;;;;;;5095714;28;20024;-94
2022/04/23 11:31:16;;;;;;;11.88;8.27;;;24.80;49.10;;;;;;5096683;28;20028;-85
2022/04/23 11:33:59;;;;;;;14.00;10.27;;;24.60;48.30;;;;;;5094837;28;20040;-85
2022/04/23 11:36:35;;;;;;;16.52;10.68;;;24.60;49.80;;;;;;5076958;28;20462;-83
2022/04/23 11:39:09;;;;;;;13.82;10.55;;;24.90;49.90;;;;;;5076964;28;20422;-87
2022/04/23 11:41:44;;;;;;;10.93;9.07;;;25.10;48.50;;;;;;5095068;28;20066;-87
2022/04/23 11:44:20;;;;;;;14.63;9.05;;;25.50;48.60;;;;;;5077678;28;20020;-84
2022/04/23 11:46:53;;;;;;;10.63;8.93;;;25.40;47.00;;;;;;5066994;28;20025;-88
2022/04/23 11:49:30;;;;;;;10.10;7.78;;;25.40;48.00;;;;;;5076001;28;20055;-81
2022/04/23 11:52:02;;;;;;;13.95;9.57;;;25.30;47.30;;;;;;5076823;28;20028;-82
2022/04/23 11:54:40;;;;;;;10.18;8.70;;;25.30;48.50;;;;;;5076032;28;20051;-84
2022/04/23 11:57:24;;;;;;;11.07;8.68;;;25.40;48.00;;;;;;5076564;28;20058;-87
2022/04/23 11:59:50;;;;;;;9.95;8.65;;;25.50;48.30;;;;;;5071250;28;20012;-86
2022/04/23 12:02:21;;;;;;;8.73;7.72;;;25.70;48.30;;;;;;5094395;28;20035;-83
2022/04/23 12:04:48;;;;;;;11.68;7.63;;;25.20;46.50;;;;;;5063946;28;20058;-82
2022/04/23 12:07:14;;;;;;;10.07;7.68;;;24.50;48.20;;;;;;5094224;28;20035;-82
2022/04/23 12:09:54;;;;;;;10.80;7.77;;;24.80;49.20;;;;;;4735116;28;10001274;-87
2022/04/23 12:12:23;;;;;;;9.13;8.15;;;25.30;48.00;;;;;;5070079;28;20078;-88
2022/04/23 12:14:55;;;;;;;10.43;8.05;;;25.90;47.60;;;;;;5067223;28;20056;-81
2022/04/23 12:17:26;;;;;;;11.27;7.95;;;26.00;46.70;;;;;;5071423;28;20024;-89
2022/04/23 12:19:54;;;;;;;10.18;7.25;;;25.70;46.90;;;;;;5070446;28;20028;-88
2022/04/23 12:22:28;;;;;;;8.80;7.32;;;25.50;47.40;;;;;;5086165;28;20050;-91
2022/04/23 12:25:18;;;;;;;9.18;7.68;;;25.00;46.90;;;;;;5087869;28;20044;-94
2022/04/23 12:27:59;;;;;;;10.70;7.72;;;24.50;47.00;;;;;;5072771;28;20410;-88
2022/04/23 12:41:59;;;;;;;9.57;8.55;;;23.60;49.30;;;;;;5093030;28;20361;-82
2022/04/23 12:44:35;;;;;;;12.98;8.48;;;24.10;49.40;;;;;;5075074;28;20024;-82
2022/04/23 12:47:06;;;;;;;12.15;10.85;;;24.50;48.60;;;;;;5075388;28;20051;-84
2022/04/23 12:49:55;;;;;;;;;;;24.60;47.80;;;;;;5073401;28;20048;-87
2022/04/23 12:52:27;;;;;;;9.48;7.53;;;24.60;47.70;;;;;;5074933;28;20286;-81
2022/04/23 12:55:18;;;;;;;9.65;7.70;;;24.40;47.10;;;;;;5075476;28;20032;-82
2022/04/23 12:57:46;;;;;;;8.82;7.85;;;23.60;48.20;;;;;;5075279;28;20021;-85
2022/04/23 13:00:20;;;;;;;10.18;7.82;;;23.50;47.80;;;;;;5075336;28;20063;-84
2022/04/23 13:02:48;;;;;;;10.25;7.65;;;23.30;49.20;;;;;;5075333;28;20119;-83
2022/04/23 13:05:14;;;;;;;12.68;7.38;;;23.20;48.60;;;;;;5075052;28;20471;-84
2022/04/23 13:10:25;;;;;;;9.45;7.45;;;23.10;50.30;;;;;;5093430;28;20054;-82
2022/04/23 13:12:52;;;;;;;18.13;14.25;;;22.90;50.00;;;;;;5093120;28;20034;-86
2022/04/23 13:15:17;;;;;;;14.68;9.27;;;22.80;50.30;;;;;;5075123;28;20020;-86